createdAt,value
2017-06-22T05:36:50.719Z,1005.6
2017-06-22T05:37:09.715Z,1005.6
2017-06-22T05:38:11.994Z,1005.6
2017-06-22T05:39:14.074Z,1005.5
2017-06-22T05:40:16.164Z,1005.5
2017-06-22T05:41:18.249Z,1005.5
2017-06-22T05:42:20.330Z,1005.5
2017-06-22T05:43:22.389Z,1005.6
2017-06-22T05:44:24.472Z,1005.6
2017-06-22T05:45:26.551Z,1005.5
2017-06-22T05:46:28.639Z,1005.6
2017-06-22T05:47:31.184Z,1005.5
2017-06-22T05:48:33.274Z,1005.5
2017-06-22T05:49:35.359Z,1005.4
2017-06-22T05:50:37.430Z,1005.4
2017-06-22T05:51:39.511Z,1005.4
2017-06-22T05:52:41.594Z,1005.4
2017-06-22T05:53:43.666Z,1005.5
2017-06-22T05:54:45.735Z,1005.6
2017-06-22T05:55:47.819Z,1005.6
2017-06-22T05:56:49.890Z,1005.6
2017-06-22T05:57:51.974Z,1005.6
2017-06-22T05:58:54.050Z,1005.6
2017-06-22T05:59:56.132Z,1005.6
2017-06-22T06:00:58.208Z,1005.6
2017-06-22T06:02:00.298Z,1005.5
2017-06-22T06:03:04.246Z,1005.5
2017-06-22T06:04:06.329Z,1005.5
2017-06-22T06:05:08.425Z,1005.5
2017-06-22T06:06:10.509Z,1005.5
2017-06-22T13:49:14.221Z,1001.2
2017-06-22T13:49:52.839Z,1001.1
2017-06-22T13:50:54.933Z,1001.1
2017-06-22T13:51:57.020Z,1001.1
2017-06-22T13:52:59.111Z,1001
2017-06-22T13:54:01.542Z,1001
2017-06-22T13:55:03.646Z,1000.9
2017-06-22T13:56:05.765Z,1000.9
2017-06-22T13:57:07.921Z,1000.9
2017-06-22T13:58:10.012Z,1000.9
2017-06-22T13:59:12.089Z,1000.9
2017-06-22T14:00:14.190Z,1000.9
2017-06-22T14:01:16.614Z,1000.8
2017-06-22T14:02:18.702Z,1000.8
2017-06-22T14:03:20.794Z,1000.8
2017-06-22T14:04:22.898Z,1000.8
2017-06-22T14:05:25.022Z,1000.8
2017-06-22T14:06:27.135Z,1000.8
2017-06-22T14:07:29.230Z,1000.7
2017-06-22T14:08:31.658Z,1000.7
2017-06-22T14:09:33.748Z,1000.7
2017-06-22T14:10:35.839Z,1000.6
2017-06-22T14:11:38.273Z,1000.5
2017-06-22T14:12:40.716Z,1000.5
2017-06-22T14:13:42.796Z,1000.5
2017-06-22T14:14:44.890Z,1000.4
2017-06-22T14:15:46.988Z,1000.4
2017-06-22T14:16:49.078Z,1000.5
2017-06-22T14:17:51.183Z,1000.5
2017-06-22T14:18:53.270Z,1000.4
2017-06-22T14:19:55.371Z,1000.4
2017-06-22T14:20:57.459Z,1000.4
2017-06-22T14:21:59.540Z,1000.4
2017-06-22T14:23:01.643Z,1000.4
2017-06-22T14:24:04.417Z,1000.3
2017-06-22T14:25:06.528Z,1000.4
2017-06-22T14:26:08.629Z,1000.3
2017-06-22T14:27:11.074Z,1000.3
2017-06-22T14:28:13.171Z,1000.3
2017-06-22T14:29:15.281Z,1000.3
2017-06-22T14:30:17.368Z,1000.2
2017-06-22T14:31:19.450Z,1000.2
2017-06-22T14:32:21.892Z,1000.2
2017-06-22T14:33:24.015Z,1000.2
2017-06-22T14:34:26.441Z,1000.2
2017-06-22T14:35:28.881Z,1000.1
2017-06-22T14:36:30.978Z,1000.1
2017-06-22T14:37:33.088Z,1000
2017-06-22T14:38:35.168Z,1000
2017-06-22T14:39:37.259Z,1000
2017-06-22T14:40:39.733Z,999.9
2017-06-22T14:41:41.826Z,1000
2017-06-22T14:42:43.917Z,1000
2017-06-22T14:43:46.362Z,1000
2017-06-22T14:44:48.820Z,999.9
2017-06-22T14:45:50.927Z,999.9
2017-06-22T14:46:53.016Z,999.8
2017-06-22T14:47:55.115Z,999.9
2017-06-22T14:48:57.249Z,999.8
2017-06-22T14:49:59.355Z,999.8
2017-06-22T14:51:01.452Z,999.8
2017-06-22T14:52:03.901Z,999.8
2017-06-22T14:53:06.018Z,999.7
2017-06-22T14:54:08.117Z,999.7
2017-06-22T14:55:10.219Z,999.7
2017-06-22T14:56:12.320Z,999.7
2017-06-22T14:57:14.752Z,999.7
2017-06-22T14:58:16.865Z,999.7
2017-06-22T14:59:18.963Z,999.7
2017-06-22T15:00:21.074Z,999.6
2017-06-22T15:01:23.172Z,999.5
2017-06-22T15:02:25.267Z,999.6
2017-06-22T15:03:27.718Z,999.5
2017-06-22T15:04:30.162Z,999.5
2017-06-22T15:05:32.615Z,999.4
2017-06-22T15:06:34.707Z,999.4
2017-06-22T15:07:36.813Z,999.4
2017-06-22T15:08:38.915Z,999.3
2017-06-22T15:09:41.033Z,999.3
2017-06-22T15:10:43.146Z,999.3
2017-06-22T15:11:45.236Z,999.3
2017-06-22T15:12:47.328Z,999.3
2017-06-22T15:13:49.779Z,999.3
2017-06-22T15:14:51.862Z,999.2
2017-06-22T15:15:53.964Z,999.3
2017-06-22T15:16:56.395Z,999.3
2017-06-22T15:17:58.519Z,999.3
2017-06-22T15:19:00.614Z,999.3
2017-06-22T15:20:02.711Z,999.3
2017-06-22T15:21:04.825Z,999.3
2017-06-22T15:22:06.914Z,999.3
2017-06-22T15:23:09.017Z,999.2
2017-06-22T15:24:11.456Z,999.3
2017-06-22T15:25:13.554Z,999.2
2017-06-22T15:26:15.648Z,999.2
2017-06-22T15:27:17.745Z,999.3
2017-06-22T15:28:19.854Z,999.2
2017-06-22T15:29:21.942Z,999.2
2017-06-22T15:30:24.042Z,999.3
2017-06-22T15:31:26.145Z,999.3
2017-06-22T15:32:28.235Z,999.3
2017-06-22T15:33:30.338Z,999.4
2017-06-22T15:34:32.774Z,999.3
2017-06-22T15:35:34.880Z,999.4
2017-06-22T15:36:36.983Z,999.4
2017-06-22T15:37:39.750Z,999.4
2017-06-22T15:38:41.849Z,999.4
2017-06-22T15:39:44.289Z,999.4
2017-06-22T15:40:46.398Z,999.4
2017-06-22T15:41:48.843Z,999.4
2017-06-22T15:42:50.944Z,999.4
2017-06-22T15:43:53.038Z,999.4
2017-06-22T15:44:55.154Z,999.4
2017-06-22T15:45:57.252Z,999.4
2017-06-22T15:46:59.349Z,999.5
2017-06-22T15:48:01.445Z,999.5
2017-06-22T15:49:03.547Z,999.4
2017-06-22T15:50:05.650Z,999.4
2017-06-22T15:51:07.766Z,999.4
2017-06-22T15:52:09.862Z,999.4
2017-06-22T15:53:11.972Z,999.4
2017-06-22T15:54:14.044Z,999.4
2017-06-22T15:55:16.146Z,999.4
2017-06-22T15:56:18.447Z,999.4
2017-06-22T15:57:20.545Z,999.5
2017-06-22T15:58:22.641Z,999.5
2017-06-22T15:59:24.732Z,999.5
2017-06-22T16:00:26.818Z,999.5
2017-06-22T16:01:28.922Z,999.5
2017-06-22T16:02:31.014Z,999.4
2017-06-22T16:03:33.118Z,999.4
2017-06-22T16:04:35.219Z,999.4
2017-06-22T16:05:37.310Z,999.3
2017-06-22T16:06:39.418Z,999.3
2017-06-22T16:07:41.538Z,999.3
2017-06-22T16:08:43.651Z,999.4
2017-06-22T16:09:45.740Z,999.3
2017-06-22T16:10:47.831Z,999.4
2017-06-22T16:11:49.935Z,999.4
2017-06-22T16:12:52.030Z,999.5
2017-06-22T16:13:54.116Z,999.5
2017-06-22T16:14:56.213Z,999.4
2017-06-22T16:15:58.299Z,999.5
2017-06-22T16:17:00.765Z,999.5
2017-06-22T16:18:03.195Z,999.5
2017-06-22T16:19:05.647Z,999.5
2017-06-22T16:20:07.746Z,999.6
2017-06-22T16:21:09.839Z,999.6
2017-06-22T16:22:12.294Z,999.7
2017-06-22T16:23:14.394Z,999.7
2017-06-22T16:24:16.489Z,999.7
2017-06-22T16:25:18.589Z,999.7
2017-06-22T16:26:20.685Z,999.7
2017-06-22T16:27:22.775Z,999.7
2017-06-22T16:28:24.868Z,999.6
2017-06-22T16:29:26.961Z,999.7
2017-06-22T16:30:29.051Z,999.7
2017-06-22T16:31:31.147Z,999.7
2017-06-22T16:32:33.254Z,999.7
2017-06-22T16:33:35.351Z,999.7
2017-06-22T16:34:37.774Z,999.6
2017-06-22T16:35:39.900Z,999.7
2017-06-22T16:36:41.999Z,999.7
2017-06-22T16:37:44.090Z,999.6
2017-06-22T16:38:46.183Z,999.7
2017-06-22T16:39:48.268Z,999.6
2017-06-22T16:40:50.706Z,999.6
2017-06-22T16:41:52.796Z,999.5
2017-06-22T16:42:54.886Z,999.5
2017-06-22T16:43:57.005Z,999.5
2017-06-22T16:44:59.098Z,999.5
2017-06-22T16:46:01.538Z,999.4
2017-06-22T16:47:03.643Z,999.5
2017-06-22T16:48:05.740Z,999.4
2017-06-22T16:49:08.173Z,999.4
2017-06-22T16:50:10.638Z,999.3
2017-06-22T16:51:12.739Z,999.4
2017-06-22T16:52:14.839Z,999.4
2017-06-22T16:53:17.468Z,999.3
2017-06-22T16:54:19.561Z,999.3
2017-06-22T16:55:21.652Z,999.3
2017-06-22T16:56:23.751Z,999.3
2017-06-22T16:57:25.848Z,999.3
2017-06-22T16:58:27.933Z,999.3
2017-06-22T16:59:30.047Z,999.3
2017-06-22T17:00:32.150Z,999.3
2017-06-22T17:01:34.240Z,999.2
2017-06-22T17:02:36.329Z,999.2
2017-06-22T17:03:38.424Z,999.2
2017-06-22T17:04:40.517Z,999.2
2017-06-22T17:05:42.620Z,999.2
2017-06-22T17:06:44.716Z,999.2
2017-06-22T17:07:46.813Z,999.1
2017-06-22T17:08:48.922Z,999.1
2017-06-22T17:09:51.024Z,999.1
2017-06-22T17:10:53.126Z,999.2
2017-06-22T17:11:55.236Z,999.2
2017-06-22T17:12:57.326Z,999.2
2017-06-22T17:13:59.427Z,999.3
2017-06-22T17:15:01.497Z,999.3
2017-06-22T17:16:04.288Z,999.3
2017-06-22T17:17:06.392Z,999.3
2017-06-22T17:18:08.476Z,999.4
2017-06-22T17:19:10.931Z,999.4
2017-06-22T17:20:13.015Z,999.5
2017-06-22T17:21:15.110Z,999.5
2017-06-22T17:22:17.202Z,999.5
2017-06-22T17:23:19.295Z,999.5
2017-06-22T17:24:21.404Z,999.4
2017-06-22T17:25:23.496Z,999.3
2017-06-22T17:26:25.571Z,999.3
2017-06-22T17:27:27.677Z,999.3
2017-06-22T17:28:29.780Z,999.2
2017-06-22T17:29:32.215Z,999.3
2017-06-22T17:30:34.841Z,999.4
2017-06-22T17:31:36.933Z,999.4
2017-06-22T17:32:39.035Z,999.4
2017-06-22T17:33:41.119Z,999.4
2017-06-22T17:34:43.210Z,999.5
2017-06-22T17:35:45.302Z,999.5
2017-06-22T17:36:47.386Z,999.5
2017-06-22T17:37:49.485Z,999.5
2017-06-22T17:38:51.563Z,999.5
2017-06-22T17:39:53.652Z,999.4
2017-06-22T17:40:55.801Z,999.4
2017-06-22T17:41:57.885Z,999.3
2017-06-22T17:42:59.983Z,999.3
2017-06-22T17:44:02.077Z,999.2
2017-06-22T17:45:04.184Z,999.1
2017-06-22T17:46:06.282Z,999.1
2017-06-22T17:47:08.702Z,999.1
2017-06-22T17:48:10.816Z,999.2
2017-06-22T17:49:12.909Z,999.2
2017-06-22T17:50:14.993Z,999.3
2017-06-22T17:51:17.108Z,999.3
2017-06-22T17:52:19.535Z,999.3
2017-06-22T17:53:21.627Z,999.3
2017-06-22T17:54:23.721Z,999.2
2017-06-22T17:55:25.804Z,999.3
2017-06-22T17:56:27.908Z,999.4
2017-06-22T17:57:29.980Z,999.3
2017-06-22T17:58:32.073Z,999.2
2017-06-22T17:59:34.264Z,999.2
2017-06-22T18:00:36.351Z,999.1
2017-06-22T18:01:38.449Z,999
2017-06-22T18:02:40.549Z,999
2017-06-22T18:03:42.654Z,999
2017-06-22T18:04:45.086Z,999
2017-06-22T18:05:47.170Z,999
2017-06-22T18:06:49.280Z,999
2017-06-22T18:07:51.382Z,999.1
2017-06-22T18:08:53.471Z,999.1
2017-06-22T18:09:55.573Z,999.2
2017-06-22T18:10:57.864Z,999.3
2017-06-22T18:11:59.958Z,999.4
2017-06-22T18:13:02.054Z,999.4
2017-06-22T18:14:04.139Z,999.5
2017-06-22T18:15:06.572Z,999.5
2017-06-22T18:16:08.666Z,999.6
2017-06-22T18:17:11.676Z,999.9
2017-06-22T18:18:13.773Z,1000.3
2017-06-22T18:19:15.879Z,1000.8
2017-06-22T18:20:18.186Z,1001.3
2017-06-22T18:21:20.284Z,1001.5
2017-06-22T18:22:22.374Z,1001.6
2017-06-22T18:23:24.543Z,1001.4
2017-06-22T18:24:26.641Z,1001.5
2017-06-22T18:25:28.742Z,1001.5
2017-06-22T18:26:30.831Z,1001.1
2017-06-22T18:27:32.921Z,1000.8
2017-06-22T18:28:35.059Z,1000.4
2017-06-22T18:29:39.030Z,1000.1
2017-06-22T18:30:41.119Z,1000.3
2017-06-22T18:31:43.558Z,1000.5
2017-06-22T18:32:45.650Z,1000.6
2017-06-22T18:33:47.751Z,1000.4
2017-06-22T18:34:49.847Z,1000.5
2017-06-22T18:35:51.935Z,1000.6
2017-06-22T18:36:54.039Z,1000.6
2017-06-22T18:37:56.473Z,1000.5
2017-06-22T18:38:58.558Z,1000.5
2017-06-22T18:40:00.670Z,1000.5
2017-06-22T18:41:02.759Z,1000.7
2017-06-22T18:42:04.854Z,1000.7
2017-06-22T18:43:06.948Z,1000.7
2017-06-22T18:44:09.050Z,1000.7
2017-06-22T18:45:11.471Z,1000.5
2017-06-22T18:46:13.563Z,1000.4
2017-06-22T18:47:15.670Z,1000.4
2017-06-22T18:48:17.751Z,1000.4
2017-06-22T18:49:20.175Z,1000.3
2017-06-22T18:50:22.273Z,1000.2
2017-06-22T18:51:24.370Z,1000
2017-06-22T18:52:26.466Z,1000.1
2017-06-22T18:53:28.545Z,1000.1
2017-06-22T18:54:30.652Z,1000.2
2017-06-22T18:55:33.099Z,1000.4
2017-06-22T18:56:35.185Z,1000.2
2017-06-22T18:57:37.279Z,1000.1
2017-06-22T18:58:39.374Z,999.9
2017-06-22T18:59:41.461Z,999.9
2017-06-22T19:00:43.553Z,1000
2017-06-22T19:01:45.630Z,1000
2017-06-22T19:02:47.743Z,1000
2017-06-22T19:03:49.845Z,999.9
2017-06-22T19:04:52.282Z,999.8
2017-06-22T19:05:54.375Z,999.8
2017-06-22T19:06:56.472Z,999.8
2017-06-22T19:07:58.563Z,999.7
2017-06-22T19:09:00.981Z,999.7
2017-06-22T19:10:03.072Z,999.7
2017-06-22T19:11:05.172Z,999.8
2017-06-22T19:12:07.251Z,999.7
2017-06-22T19:13:09.698Z,999.8
2017-06-22T19:14:11.815Z,999.7
2017-06-22T19:15:14.243Z,999.8
2017-06-22T19:16:16.545Z,999.9
2017-06-22T19:17:18.636Z,999.9
2017-06-22T19:18:20.733Z,999.9
2017-06-22T19:19:22.833Z,999.9
2017-06-22T19:20:24.915Z,999.9
2017-06-22T19:21:27.021Z,1000
2017-06-22T19:22:29.106Z,1000.1
2017-06-22T19:23:31.199Z,1000.1
2017-06-22T19:24:33.286Z,1000
2017-06-22T19:25:35.373Z,1000
2017-06-22T19:26:37.472Z,1000
2017-06-22T19:27:39.571Z,999.9
2017-06-22T19:28:41.652Z,999.8
2017-06-22T19:29:43.757Z,999.7
2017-06-22T19:30:46.178Z,999.7
2017-06-22T19:31:48.268Z,999.7
2017-06-22T19:32:50.703Z,999.7
2017-06-22T19:33:53.134Z,999.8
2017-06-22T19:34:55.242Z,999.8
2017-06-22T19:35:57.341Z,999.7
2017-06-22T19:36:59.413Z,999.7
2017-06-22T19:38:01.505Z,999.7
2017-06-22T19:39:03.613Z,999.7
2017-06-22T19:40:05.704Z,999.7
2017-06-22T19:41:07.807Z,999.7
2017-06-22T19:42:09.906Z,999.7
2017-06-22T19:43:12.348Z,999.7
2017-06-22T19:44:14.420Z,999.6
2017-06-22T19:45:16.510Z,999.6
2017-06-22T19:46:18.605Z,999.6
2017-06-22T19:47:20.701Z,999.6
2017-06-22T19:48:22.779Z,999.6
2017-06-22T19:49:24.864Z,999.5
2017-06-22T19:50:27.286Z,999.4
2017-06-22T19:51:29.372Z,999.3
2017-06-22T19:52:31.461Z,999.4
2017-06-22T19:53:33.556Z,999.4
2017-06-22T19:54:35.982Z,999.4
2017-06-22T19:55:38.062Z,999.3
2017-06-22T19:56:40.155Z,999.4
2017-06-22T19:57:42.239Z,999.3
2017-06-22T19:58:44.328Z,999.3
2017-06-22T19:59:46.412Z,999.4
2017-06-22T20:00:48.508Z,999.3
2017-06-22T20:01:50.599Z,999.4
2017-06-22T20:02:52.668Z,999.4
2017-06-22T20:03:54.758Z,999.6
2017-06-22T20:04:56.851Z,999.7
2017-06-22T20:05:58.936Z,999.8
2017-06-22T20:07:01.025Z,999.8
2017-06-22T20:08:03.113Z,999.8
2017-06-22T20:09:05.195Z,999.6
2017-06-22T20:10:07.293Z,999.5
2017-06-22T20:11:09.377Z,999.5
2017-06-22T20:12:11.469Z,999.4
2017-06-22T20:13:13.561Z,999.3
2017-06-22T20:14:15.655Z,999.1
2017-06-22T20:15:17.739Z,998.7
2017-06-22T20:16:20.503Z,998.6
2017-06-22T20:17:22.580Z,998.8
2017-06-22T20:18:24.684Z,998.7
2017-06-22T20:19:26.763Z,998.5
2017-06-22T20:20:28.848Z,998.3
2017-06-22T20:21:30.938Z,998
2017-06-22T20:22:33.021Z,997.8
2017-06-22T20:23:35.107Z,997.8
2017-06-22T20:24:37.189Z,997.8
2017-06-22T20:25:39.313Z,997.8
2017-06-22T20:26:41.419Z,997.7
2017-06-22T20:27:43.505Z,997.7
2017-06-22T20:28:45.601Z,997.7
2017-06-22T20:29:47.680Z,997.5
2017-06-22T20:30:49.763Z,997.5
2017-06-22T20:31:51.853Z,997.5
2017-06-22T20:32:53.938Z,997.5
2017-06-22T20:33:56.028Z,997.4
2017-06-22T20:34:58.131Z,997.3
2017-06-22T20:36:00.224Z,997.2
2017-06-22T20:37:02.314Z,997
2017-06-22T20:38:04.399Z,996.8
2017-06-22T20:39:06.483Z,996.8
2017-06-22T20:40:08.569Z,996.8
2017-06-22T20:41:10.885Z,996.9
2017-06-22T20:42:12.979Z,997.1
2017-06-22T20:43:15.054Z,997.2
2017-06-22T20:44:17.483Z,997.2
2017-06-22T20:45:19.566Z,997.2
2017-06-22T20:46:22.334Z,997.2
2017-06-22T20:47:24.439Z,997.2
2017-06-22T20:48:26.526Z,997.3
2017-06-22T20:49:28.613Z,997.3
2017-06-22T20:50:30.710Z,997.3
2017-06-22T20:51:32.793Z,997.3
2017-06-22T20:52:34.871Z,997.2
2017-06-22T20:53:36.956Z,997.2
2017-06-22T20:54:39.041Z,997.2
2017-06-22T20:55:41.141Z,997.1
2017-06-22T20:56:43.235Z,997
2017-06-22T20:57:45.695Z,997
2017-06-22T20:58:47.780Z,997
2017-06-22T20:59:49.864Z,996.8
2017-06-22T21:00:51.977Z,996.8
2017-06-22T21:01:54.060Z,996.5
2017-06-22T21:02:56.145Z,996.2
2017-06-22T21:03:58.227Z,996
2017-06-22T21:05:00.300Z,996
2017-06-22T21:06:02.392Z,996
2017-06-22T21:07:04.678Z,996.3
2017-06-22T21:08:06.776Z,996.6
2017-06-22T21:09:08.873Z,996.7
2017-06-22T21:10:11.312Z,996.8
2017-06-22T21:11:13.405Z,997
2017-06-22T21:12:15.487Z,997.1
2017-06-22T21:13:17.569Z,997.2
2017-06-22T21:14:19.659Z,997.2
2017-06-22T21:15:21.746Z,997.3
2017-06-22T21:16:23.860Z,997.4
2017-06-22T21:17:25.947Z,997.5
2017-06-22T21:18:28.017Z,997.5
2017-06-22T21:19:30.489Z,997.5
2017-06-22T21:20:32.935Z,997.6
2017-06-22T21:21:35.023Z,997.7
2017-06-22T21:22:37.799Z,997.7
2017-06-22T21:23:39.884Z,997.7
2017-06-22T21:24:41.972Z,997.8
2017-06-22T21:25:44.390Z,997.8
2017-06-22T21:26:46.478Z,997.7
2017-06-22T21:27:48.910Z,997.7
2017-06-22T21:28:51.001Z,997.7
2017-06-22T21:29:53.084Z,997.8
2017-06-22T21:30:55.171Z,997.8
2017-06-22T21:31:57.255Z,997.9
2017-06-22T21:32:59.367Z,997.8
2017-06-22T21:34:01.878Z,998
2017-06-22T21:35:03.974Z,998.1
2017-06-22T21:36:06.051Z,998.1
2017-06-22T21:37:08.136Z,998.2
2017-06-22T21:38:10.224Z,998.2
2017-06-22T21:39:12.311Z,998.4
2017-06-22T21:40:14.399Z,998.4
2017-06-22T21:41:16.486Z,998.6
2017-06-22T21:42:18.893Z,998.6
2017-06-22T21:43:20.989Z,998.6
2017-06-22T21:44:23.077Z,998.8
2017-06-22T21:45:25.162Z,998.8
2017-06-22T21:46:27.254Z,998.8
2017-06-22T21:47:29.340Z,998.7
2017-06-22T21:48:31.427Z,998.6
2017-06-22T21:49:33.501Z,998.6
2017-06-22T21:50:35.931Z,998.7
2017-06-22T21:51:38.358Z,998.7
2017-06-22T21:52:40.449Z,998.7
2017-06-22T21:53:42.874Z,998.8
2017-06-22T21:54:44.959Z,998.8
2017-06-22T21:55:47.034Z,998.8
2017-06-22T21:56:49.128Z,998.7
2017-06-22T21:57:51.207Z,998.8
2017-06-22T21:58:53.321Z,998.8
2017-06-22T21:59:55.400Z,998.8
2017-06-22T22:00:57.482Z,998.8
2017-06-22T22:01:59.572Z,998.8
2017-06-22T22:03:01.661Z,998.8
2017-06-22T22:04:04.284Z,998.8
2017-06-22T22:05:06.372Z,998.8
2017-06-22T22:06:08.456Z,998.9
2017-06-22T22:07:10.538Z,998.7
2017-06-22T22:08:12.637Z,998.6
2017-06-22T22:09:14.720Z,998.7
2017-06-22T22:10:17.145Z,998.7
2017-06-22T22:11:19.239Z,998.8
2017-06-22T22:12:21.322Z,998.8
2017-06-22T22:13:23.399Z,998.8
2017-06-22T22:14:25.485Z,998.8
2017-06-22T22:15:27.586Z,998.8
2017-06-22T22:16:29.671Z,998.8
2017-06-22T22:17:31.755Z,998.8
2017-06-22T22:18:34.192Z,998.9
2017-06-22T22:19:36.272Z,999
2017-06-22T22:20:38.366Z,999
2017-06-22T22:21:40.451Z,999
2017-06-22T22:22:42.749Z,999
2017-06-22T22:23:44.839Z,999
2017-06-22T22:24:46.922Z,998.9
2017-06-22T22:25:49.336Z,999
2017-06-22T22:26:51.621Z,999
2017-06-22T22:27:53.714Z,999
2017-06-22T22:28:55.802Z,999
2017-06-22T22:29:58.204Z,999
2017-06-22T22:31:00.302Z,999
2017-06-22T22:32:02.394Z,999
2017-06-22T22:33:04.477Z,999
2017-06-22T22:34:06.577Z,998.9
2017-06-22T22:35:08.673Z,998.9
2017-06-22T22:36:11.115Z,998.9
2017-06-22T22:37:13.196Z,999
2017-06-22T22:38:15.283Z,999
2017-06-22T22:39:17.384Z,998.9
2017-06-22T22:40:19.467Z,998.9
2017-06-22T22:41:21.541Z,998.9
2017-06-22T22:42:23.630Z,998.8
2017-06-22T22:43:25.724Z,998.7
2017-06-22T22:44:27.811Z,998.7
2017-06-22T22:45:29.921Z,998.8
2017-06-22T22:46:31.996Z,998.7
2017-06-22T22:47:34.086Z,998.7
2017-06-22T22:48:36.188Z,998.6
2017-06-22T22:49:38.269Z,998.7
2017-06-22T22:50:40.365Z,998.7
2017-06-22T22:51:42.451Z,998.7
2017-06-22T22:52:44.538Z,998.7
2017-06-22T22:53:46.617Z,998.6
2017-06-22T22:54:48.689Z,998.6
2017-06-22T22:55:50.785Z,998.6
2017-06-22T22:56:52.868Z,998.5
2017-06-22T22:57:54.957Z,998.5
2017-06-22T22:58:57.399Z,998.6
2017-06-22T22:59:59.833Z,998.6
2017-06-22T23:01:02.257Z,998.6
2017-06-22T23:02:04.683Z,998.5
2017-06-22T23:03:06.780Z,998.5
2017-06-22T23:04:08.872Z,998.4
2017-06-22T23:05:11.299Z,998.4
2017-06-22T23:06:13.388Z,998.4
2017-06-22T23:07:15.805Z,998.4
2017-06-22T23:08:17.897Z,998.4
2017-06-22T23:09:19.982Z,998.4
2017-06-22T23:10:22.074Z,998.4
2017-06-22T23:11:24.157Z,998.5
2017-06-22T23:12:26.231Z,998.6
2017-06-22T23:13:28.656Z,998.6
2017-06-22T23:14:30.746Z,998.6
2017-06-22T23:15:32.828Z,998.7
2017-06-22T23:16:35.257Z,998.6
2017-06-22T23:17:37.345Z,998.6
2017-06-22T23:18:39.428Z,998.7
2017-06-22T23:19:41.522Z,998.6
2017-06-22T23:20:43.606Z,998.6
2017-06-22T23:21:45.677Z,998.6
2017-06-22T23:22:47.773Z,998.6
2017-06-22T23:23:49.860Z,998.6
2017-06-22T23:24:51.945Z,998.6
2017-06-22T23:25:54.022Z,998.6
2017-06-22T23:26:56.118Z,998.6
2017-06-22T23:27:58.207Z,998.6
2017-06-22T23:29:00.272Z,998.6
2017-06-22T23:30:02.354Z,998.5
2017-06-22T23:31:04.655Z,998.5
2017-06-22T23:32:06.739Z,998.5
2017-06-22T23:33:08.833Z,998.5
2017-06-22T23:34:11.285Z,998.4
2017-06-22T23:35:13.376Z,998.5
2017-06-22T23:36:15.464Z,998.5
2017-06-22T23:37:17.541Z,998.5
2017-06-22T23:38:19.632Z,998.5
2017-06-22T23:39:22.050Z,998.5
2017-06-22T23:40:24.135Z,998.5
2017-06-22T23:41:26.215Z,998.5
2017-06-22T23:42:28.308Z,998.5
2017-06-22T23:43:30.397Z,998.5
2017-06-22T23:44:32.476Z,998.4
2017-06-22T23:45:34.553Z,998.4
2017-06-22T23:46:36.647Z,998.4
2017-06-22T23:47:38.732Z,998.3
2017-06-22T23:48:41.172Z,998.3
2017-06-22T23:49:43.251Z,998.2
2017-06-22T23:50:45.339Z,998.3
2017-06-22T23:51:47.419Z,998.2
2017-06-22T23:52:49.511Z,998.3
2017-06-22T23:53:51.593Z,998.3
2017-06-22T23:54:53.712Z,998.2
2017-06-22T23:55:55.793Z,998.2
2017-06-22T23:56:58.222Z,998.2
2017-06-22T23:58:00.316Z,998.2
2017-06-22T23:59:02.398Z,998.1
